Stations météo

Publicité
Threave, Grande-Bretagne (99090): Température de l'air & dewpoint: 11.02.2020 21:00:00 - 17.02.2020 21:00:00 (GMT)Threave, Grande-Bretagne (99090): Température de l'air -20cm & Température de l'air -100cm: 11.02.2020 21:00:00 - 17.02.2020 21:00:00 (GMT)Threave, Grande-Bretagne (99090): Quantités de précipitations: 11.02.2020 21:00:00 - 17.02.2020 21:00:00 (GMT)
Date & Time tt [°C] td [°C] tt -20cm [°C] tt -100cm [°C] rr [mm]
17.02.2020 21:00:00 - - - - -
17.02.2020 20:00:00 4,0 1,1 - - 0,0
17.02.2020 19:00:00 4,4 0,3 - - 0,0
17.02.2020 18:00:00 4,7 0,9 - - 0,0
17.02.2020 17:00:00 4,3 1,9 - - 0,2
17.02.2020 16:00:00 6,0 1,9 - - 0,0
17.02.2020 15:00:00 6,6 1,2 - - 0,0
17.02.2020 14:00:00 8,1 2,8 - - 0,0
17.02.2020 13:00:00 8,1 3,5 - - 0,0
17.02.2020 12:00:00 7,6 3,8 - - 0,0
17.02.2020 11:00:00 7,5 4,1 - - 0,0
17.02.2020 10:00:00 7,5 4,3 - - 0,0
17.02.2020 09:00:00 6,5 4,6 5,4 6,2 0,2
17.02.2020 08:00:00 6,3 4,2 - - 0,0
17.02.2020 07:00:00 6,1 3,7 - - 0,0
17.02.2020 06:00:00 5,8 3,1 - - 0,0
17.02.2020 05:00:00 5,5 2,3 - - 0,0
17.02.2020 04:00:00 5,7 1,9 - - 0,0
17.02.2020 03:00:00 5,5 2,3 - - 0,0
17.02.2020 02:00:00 5,8 1,5 - - 0,0
17.02.2020 01:00:00 5,9 1,4 - - 0,0
17.02.2020 00:00:00 5,9 1,3 - - 0,0
16.02.2020 23:00:00 5,7 1,1 - - 0,0
16.02.2020 22:00:00 5,3 1,1 - - 0,0
16.02.2020 21:00:00 5,1 1,4 - - 0,0
16.02.2020 20:00:00 5,1 1,6 - - 0,0
16.02.2020 19:00:00 5,3 1,9 - - 0,0
16.02.2020 18:00:00 5,6 1,7 - - 0,0
16.02.2020 17:00:00 6,0 1,6 - - 0,0
16.02.2020 16:00:00 6,6 1,7 - - 0,0
16.02.2020 15:00:00 7,3 0,7 - - 0,0
16.02.2020 14:00:00 7,2 1,4 - - 0,0
16.02.2020 13:00:00 7,4 1,2 - - 0,0
16.02.2020 12:00:00 7,0 1,5 - - 0,0
16.02.2020 11:00:00 6,9 1,0 - - 0,0
16.02.2020 10:00:00 5,8 1,1 - - 0,0
16.02.2020 09:00:00 5,1 0,9 5,7 6,0 0,0
16.02.2020 08:00:00 5,5 1,2 - - 0,0
16.02.2020 07:00:00 5,4 1,3 - - 0,0
16.02.2020 06:00:00 5,2 1,8 - - 0,2
16.02.2020 05:00:00 5,2 1,7 - - 0,0
16.02.2020 04:00:00 6,9 3,4 - - 0,0
16.02.2020 03:00:00 7,7 3,1 - - 0,0
16.02.2020 02:00:00 9,2 5,8 - - 0,0
16.02.2020 01:00:00 7,4 5,3 - - 0,2
16.02.2020 00:00:00 7,9 6,4 - - 0,0
15.02.2020 23:00:00 7,0 4,5 - - 0,0
15.02.2020 22:00:00 6,8 4,3 - - 0,0
15.02.2020 21:00:00 7,0 5,0 - - 0,2
15.02.2020 20:00:00 7,2 4,1 - - 0,0
15.02.2020 19:00:00 8,0 7,0 - - 0,0
15.02.2020 18:00:00 7,7 7,0 - - 2,0
15.02.2020 17:00:00 7,8 7,1 - - 3,2
15.02.2020 16:00:00 9,3 8,7 - - 3,8
15.02.2020 15:00:00 9,1 8,3 - - 1,0
15.02.2020 14:00:00 8,9 7,8 - - 1,0
15.02.2020 13:00:00 8,8 7,4 - - 0,0
15.02.2020 12:00:00 8,8 8,1 - - 4,2
15.02.2020 11:00:00 8,2 7,5 - - 3,4
15.02.2020 10:00:00 7,5 6,8 - - 1,6
15.02.2020 09:00:00 7,4 5,9 4,9 6,2 0,2
15.02.2020 08:00:00 6,8 5,7 - - 0,0
15.02.2020 07:00:00 6,9 4,9 - - 0,0
15.02.2020 06:00:00 7,2 5,1 - - 0,0
15.02.2020 05:00:00 7,1 6,1 - - 0,0
15.02.2020 04:00:00 6,9 5,9 - - 0,0
15.02.2020 03:00:00 6,0 5,4 - - 0,0
15.02.2020 02:00:00 3,9 2,6 - - 0,0
15.02.2020 01:00:00 4,1 3,4 - - 0,0
15.02.2020 00:00:00 4,8 3,3 - - 0,0
14.02.2020 23:00:00 6,8 4,1 - - 0,0
14.02.2020 22:00:00 6,4 4,2 - - 0,0
14.02.2020 21:00:00 7,1 2,7 - - 0,0
14.02.2020 20:00:00 7,1 4,1 - - 0,0
14.02.2020 19:00:00 7,2 4,7 - - 0,0
14.02.2020 18:00:00 7,6 4,6 - - 0,0
14.02.2020 17:00:00 8,0 5,1 - - 0,0
14.02.2020 16:00:00 9,1 5,9 - - 0,0
14.02.2020 15:00:00 9,4 7,7 - - 0,0
14.02.2020 14:00:00 9,2 8,4 - - 0,0
14.02.2020 13:00:00 8,8 8,3 - - 5,0
14.02.2020 12:00:00 6,6 6,1 - - 6,6
14.02.2020 11:00:00 6,4 5,8 - - 1,6
14.02.2020 10:00:00 5,9 4,5 - - 0,0
14.02.2020 09:00:00 5,2 3,7 4,5 6,0 0,0
14.02.2020 08:00:00 5,4 3,3 - - 0,0
14.02.2020 07:00:00 5,8 4,1 - - 0,0
14.02.2020 06:00:00 5,5 4,0 - - 0,0
14.02.2020 05:00:00 5,2 4,1 - - 0,0
14.02.2020 04:00:00 4,2 3,7 - - 0,0
14.02.2020 03:00:00 2,7 2,4 - - 0,0
14.02.2020 02:00:00 2,1 1,7 - - 0,0
14.02.2020 01:00:00 2,0 1,5 - - 0,0
14.02.2020 00:00:00 2,7 2,2 - - 0,0
13.02.2020 23:00:00 2,6 1,9 - - 0,0
13.02.2020 22:00:00 3,4 2,6 - - 0,0
13.02.2020 21:00:00 3,4 2,5 - - 0,0
13.02.2020 20:00:00 4,0 2,6 - - 0,0
13.02.2020 19:00:00 4,3 2,8 - - 0,0
13.02.2020 18:00:00 4,5 2,9 - - 0,0
13.02.2020 17:00:00 5,0 2,8 - - 0,0
13.02.2020 16:00:00 5,5 3,2 - - 0,0
13.02.2020 15:00:00 5,4 3,3 - - 0,0
13.02.2020 14:00:00 5,5 2,9 - - 0,0
13.02.2020 13:00:00 4,0 3,3 - - 0,2
13.02.2020 12:00:00 2,3 1,9 - - 0,0
13.02.2020 11:00:00 1,6 1,2 - - 0,0
13.02.2020 10:00:00 1,2 0,8 - - 0,6
13.02.2020 09:00:00 0,8 0,4 4,2 5,7 1,0
13.02.2020 08:00:00 1,0 0,6 - - 1,8
13.02.2020 07:00:00 1,0 0,6 - - 1,6
13.02.2020 06:00:00 1,0 0,3 - - 3,6
13.02.2020 05:00:00 2,1 1,2 - - 4,0
13.02.2020 04:00:00 3,0 1,8 - - 1,2
13.02.2020 03:00:00 3,1 1,9 - - 0,6
13.02.2020 02:00:00 2,8 0,6 - - 0,0
13.02.2020 01:00:00 2,8 0,4 - - 0,0
13.02.2020 00:00:00 2,8 1,4 - - 0,0
12.02.2020 23:00:00 2,5 1,5 - - 0,0
12.02.2020 22:00:00 0,5 -0,3 - - 0,0
12.02.2020 21:00:00 -0,4 -1,7 - - 0,0
12.02.2020 20:00:00 0,3 -1,1 - - 0,0
12.02.2020 19:00:00 0,8 -1,4 - - 0,0
12.02.2020 18:00:00 2,5 -0,6 - - 0,0
12.02.2020 17:00:00 3,7 -0,2 - - 0,0
12.02.2020 16:00:00 4,7 0,0 - - 0,0
12.02.2020 15:00:00 4,8 -0,3 - - 0,0
12.02.2020 14:00:00 4,8 -0,1 - - 0,0
12.02.2020 13:00:00 4,9 0,4 - - 0,0
12.02.2020 12:00:00 4,5 -0,1 - - 0,0
12.02.2020 11:00:00 3,3 0,5 - - 0,0
12.02.2020 10:00:00 2,8 0,1 - - 0,0
12.02.2020 09:00:00 2,0 -0,9 4,5 6,4 0,0
12.02.2020 08:00:00 2,5 -0,2 - - 0,0
12.02.2020 07:00:00 2,2 -0,3 - - 0,0
12.02.2020 06:00:00 2,5 0,1 - - 0,0
12.02.2020 05:00:00 2,2 -0,3 - - 0,0
12.02.2020 04:00:00 2,3 0,2 - - 0,0
12.02.2020 03:00:00 2,2 -0,1 - - 0,0
12.02.2020 02:00:00 2,1 0,2 - - 0,2
12.02.2020 01:00:00 2,8 0,3 - - 0,0
12.02.2020 00:00:00 2,4 0,0 - - 0,4
11.02.2020 23:00:00 2,4 0,3 - - 0,0
11.02.2020 22:00:00 2,4 0,2 - - 0,2
11.02.2020 21:00:00 2,3 0,6 - - 0,4

tt = Température de l'air
td = dewpoint
tt -20cm = Température de l'air -20cm
tt -100cm = Température de l'air -100cm
rr = Quantités de précipitations

stations d'obs. à proximité